sensor_id;sensor_type;location;lat;lon;timestamp;pressure;altitude;pressure_sealevel;temperature;humidity
80333;BME280;69652;51.864;-2.246;2024-01-30T00:02:18;101798.84;;;11.16;94.91
80333;BME280;69652;51.864;-2.246;2024-01-30T00:04:44;101790.97;;;11.14;94.68
80333;BME280;69652;51.864;-2.246;2024-01-30T00:07:09;101791.50;;;11.11;93.98
80333;BME280;69652;51.864;-2.246;2024-01-30T00:09:35;101783.94;;;11.08;93.62
80333;BME280;69652;51.864;-2.246;2024-01-30T00:12:00;101786.34;;;11.15;94.88
80333;BME280;69652;51.864;-2.246;2024-01-30T00:14:26;101789.66;;;11.07;95.50
80333;BME280;69652;51.864;-2.246;2024-01-30T00:16:51;101787.47;;;11.09;95.31
80333;BME280;69652;51.864;-2.246;2024-01-30T00:19:17;101792.59;;;11.10;95.24
80333;BME280;69652;51.864;-2.246;2024-01-30T00:21:43;101792.88;;;11.14;95.99
80333;BME280;69652;51.864;-2.246;2024-01-30T00:24:09;101784.75;;;11.09;94.59
80333;BME280;69652;51.864;-2.246;2024-01-30T00:26:34;101784.75;;;11.09;94.10
80333;BME280;69652;51.864;-2.246;2024-01-30T00:29:00;101780.97;;;11.05;94.45
80333;BME280;69652;51.864;-2.246;2024-01-30T00:31:26;101789.66;;;11.07;94.99
80333;BME280;69652;51.864;-2.246;2024-01-30T00:33:51;101782.06;;;10.99;94.30
80333;BME280;69652;51.864;-2.246;2024-01-30T00:36:17;101792.16;;;10.93;95.54
80333;BME280;69652;51.864;-2.246;2024-01-30T00:38:43;101794.09;;;10.88;96.37
80333;BME280;69652;51.864;-2.246;2024-01-30T00:41:09;101792.75;;;10.85;97.06
80333;BME280;69652;51.864;-2.246;2024-01-30T00:43:35;101797.88;;;10.86;95.86
80333;BME280;69652;51.864;-2.246;2024-01-30T00:46:00;101789.22;;;10.84;96.20
80333;BME280;69652;51.864;-2.246;2024-01-30T00:48:26;101799.56;;;10.82;96.96
80333;BME280;69652;51.864;-2.246;2024-01-30T00:50:51;101803.09;;;10.78;97.19
80333;BME280;69652;51.864;-2.246;2024-01-30T00:53:17;101801.72;;;10.80;96.17
80333;BME280;69652;51.864;-2.246;2024-01-30T00:55:44;101802.28;;;10.82;96.89
80333;BME280;69652;51.864;-2.246;2024-01-30T00:58:09;101795.22;;;10.81;96.80
80333;BME280;69652;51.864;-2.246;2024-01-30T01:00:35;101807.97;;;10.76;97.11
80333;BME280;69652;51.864;-2.246;2024-01-30T01:03:01;101801.47;;;10.77;96.24
80333;BME280;69652;51.864;-2.246;2024-01-30T01:05:27;101807.16;;;10.75;96.49
80333;BME280;69652;51.864;-2.246;2024-01-30T01:07:52;101803.91;;;10.78;96.10
80333;BME280;69652;51.864;-2.246;2024-01-30T01:10:18;101801.47;;;10.77;96.48
80333;BME280;69652;51.864;-2.246;2024-01-30T01:12:44;101806.94;;;10.72;96.99
80333;BME280;69652;51.864;-2.246;2024-01-30T01:15:10;101803.94;;;10.73;96.29
80333;BME280;69652;51.864;-2.246;2024-01-30T01:17:36;101807.44;;;10.74;96.40
80333;BME280;69652;51.864;-2.246;2024-01-30T01:20:03;101813.72;;;10.69;97.15
80333;BME280;69652;51.864;-2.246;2024-01-30T01:22:30;101807.22;;;10.70;97.89
80333;BME280;69652;51.864;-2.246;2024-01-30T01:24:56;101805.84;;;10.68;97.06
80333;BME280;69652;51.864;-2.246;2024-01-30T01:27:22;101805.84;;;10.68;97.31
80333;BME280;69652;51.864;-2.246;2024-01-30T01:29:48;101805.31;;;10.66;97.75
80333;BME280;69652;51.864;-2.246;2024-01-30T01:32:13;101818.88;;;10.66;97.38
80333;BME280;69652;51.864;-2.246;2024-01-30T01:34:39;101817.00;;;10.66;97.16
80333;BME280;69652;51.864;-2.246;2024-01-30T01:37:04;101815.09;;;10.67;97.45
80333;BME280;69652;51.864;-2.246;2024-01-30T01:39:30;101820.25;;;10.63;96.83
80333;BME280;69652;51.864;-2.246;2024-01-30T01:41:55;101821.06;;;10.64;97.55
80333;BME280;69652;51.864;-2.246;2024-01-30T01:44:21;101824.88;;;10.63;96.99
80333;BME280;69652;51.864;-2.246;2024-01-30T01:46:47;101817.03;;;10.61;96.66
80333;BME280;69652;51.864;-2.246;2024-01-30T01:49:13;101820.00;;;10.60;96.86
80333;BME280;69652;51.864;-2.246;2024-01-30T01:51:41;101830.88;;;10.55;96.20
80333;BME280;69652;51.864;-2.246;2024-01-30T01:54:08;101834.16;;;10.46;95.25
80333;BME280;69652;51.864;-2.246;2024-01-30T01:56:34;101837.72;;;10.37;94.55
80333;BME280;69652;51.864;-2.246;2024-01-30T01:59:05;101841.22;;;10.27;94.43
80333;BME280;69652;51.864;-2.246;2024-01-30T02:01:33;101840.97;;;10.19;94.51
80333;BME280;69652;51.864;-2.246;2024-01-30T02:03:59;101851.28;;;10.11;94.02
80333;BME280;69652;51.864;-2.246;2024-01-30T02:06:26;101847.47;;;9.92;93.93
80333;BME280;69652;51.864;-2.246;2024-01-30T02:08:51;101860.50;;;9.90;94.22
80333;BME280;69652;51.864;-2.246;2024-01-30T02:11:17;101852.88;;;9.82;94.02
80333;BME280;69652;51.864;-2.246;2024-01-30T02:13:43;101863.72;;;9.72;95.16
80333;BME280;69652;51.864;-2.246;2024-01-30T02:16:09;101864.81;;;9.66;94.88
80333;BME280;69652;51.864;-2.246;2024-01-30T02:18:35;101875.38;;;9.62;95.24
80333;BME280;69652;51.864;-2.246;2024-01-30T02:21:04;101874.53;;;9.57;95.70
80333;BME280;69652;51.864;-2.246;2024-01-30T02:23:30;101884.56;;;9.51;95.60
80333;BME280;69652;51.864;-2.246;2024-01-30T02:25:58;101892.41;;;9.48;95.51
80333;BME280;69652;51.864;-2.246;2024-01-30T02:28:24;101888.91;;;9.42;96.06
80333;BME280;69652;51.864;-2.246;2024-01-30T02:30:49;101894.56;;;9.40;96.23
80333;BME280;69652;51.864;-2.246;2024-01-30T02:33:15;101901.63;;;9.41;96.35
80333;BME280;69652;51.864;-2.246;2024-01-30T02:35:41;101898.06;;;9.36;96.88
80333;BME280;69652;51.864;-2.246;2024-01-30T02:38:06;101903.22;;;9.37;96.81
80333;BME280;69652;51.864;-2.246;2024-01-30T02:40:32;101916.50;;;9.39;96.88
80333;BME280;69652;51.864;-2.246;2024-01-30T02:42:59;101921.94;;;9.39;97.08
80333;BME280;69652;51.864;-2.246;2024-01-30T02:45:25;101928.13;;;9.34;97.36
80333;BME280;69652;51.864;-2.246;2024-01-30T02:47:51;101929.22;;;9.33;97.22
80333;BME280;69652;51.864;-2.246;2024-01-30T02:50:16;101932.19;;;9.27;98.12
80333;BME280;69652;51.864;-2.246;2024-01-30T02:52:42;101932.50;;;9.40;97.42
80333;BME280;69652;51.864;-2.246;2024-01-30T02:55:09;101941.19;;;9.43;97.75
80333;BME280;69652;51.864;-2.246;2024-01-30T02:57:35;101941.16;;;9.37;97.39
80333;BME280;69652;51.864;-2.246;2024-01-30T03:00:00;101955.53;;;9.38;97.78
80333;BME280;69652;51.864;-2.246;2024-01-30T03:02:26;101961.22;;;9.36;96.40
80333;BME280;69652;51.864;-2.246;2024-01-30T03:04:52;101973.16;;;9.40;94.33
80333;BME280;69652;51.864;-2.246;2024-01-30T03:07:17;101969.94;;;9.44;93.54
80333;BME280;69652;51.864;-2.246;2024-01-30T03:09:43;101971.78;;;9.38;89.98
80333;BME280;69652;51.864;-2.246;2024-01-30T03:12:09;101970.19;;;9.42;89.19
80333;BME280;69652;51.864;-2.246;2024-01-30T03:14:35;101985.06;;;9.39;87.56
80333;BME280;69652;51.864;-2.246;2024-01-30T03:17:00;101985.59;;;9.36;87.14
80333;BME280;69652;51.864;-2.246;2024-01-30T03:19:26;101988.31;;;9.31;85.37
80333;BME280;69652;51.864;-2.246;2024-01-30T03:21:51;102002.09;;;9.30;83.98
80333;BME280;69652;51.864;-2.246;2024-01-30T03:24:17;101999.34;;;9.25;82.96
80333;BME280;69652;51.864;-2.246;2024-01-30T03:26:43;102000.16;;;9.20;82.24
80333;BME280;69652;51.864;-2.246;2024-01-30T03:29:09;102011.22;;;9.14;82.01
80333;BME280;69652;51.864;-2.246;2024-01-30T03:31:35;102022.28;;;9.07;81.20
80333;BME280;69652;51.864;-2.246;2024-01-30T03:34:01;102016.50;;;8.93;80.90
80333;BME280;69652;51.864;-2.246;2024-01-30T03:36:27;102027.03;;;8.90;81.60
80333;BME280;69652;51.864;-2.246;2024-01-30T03:38:53;102032.97;;;8.87;82.19
80333;BME280;69652;51.864;-2.246;2024-01-30T03:41:18;102043.97;;;8.75;81.97
80333;BME280;69652;51.864;-2.246;2024-01-30T03:43:44;102041.53;;;8.74;82.31
80333;BME280;69652;51.864;-2.246;2024-01-30T03:46:12;102051.75;;;8.66;82.10
80333;BME280;69652;51.864;-2.246;2024-01-30T03:48:37;102067.44;;;8.64;82.88
80333;BME280;69652;51.864;-2.246;2024-01-30T03:51:04;102066.28;;;8.55;81.43
80333;BME280;69652;51.864;-2.246;2024-01-30T03:53:30;102075.78;;;8.58;81.19
80333;BME280;69652;51.864;-2.246;2024-01-30T03:55:55;102072.81;;;8.59;82.81
80333;BME280;69652;51.864;-2.246;2024-01-30T03:58:21;102078.50;;;8.58;81.99
80333;BME280;69652;51.864;-2.246;2024-01-30T04:00:47;102082.50;;;8.55;80.59
80333;BME280;69652;51.864;-2.246;2024-01-30T04:03:12;102075.94;;;8.46;80.51
80333;BME280;69652;51.864;-2.246;2024-01-30T04:05:38;102100.19;;;8.36;80.74
80333;BME280;69652;51.864;-2.246;2024-01-30T04:08:03;102096.41;;;8.37;81.06
80333;BME280;69652;51.864;-2.246;2024-01-30T04:10:29;102097.88;;;8.28;81.92
80333;BME280;69652;51.864;-2.246;2024-01-30T04:12:55;102098.03;;;8.16;80.42
80333;BME280;69652;51.864;-2.246;2024-01-30T04:15:20;102103.41;;;8.11;80.58
80333;BME280;69652;51.864;-2.246;2024-01-30T04:17:46;102119.81;;;8.05;80.12
80333;BME280;69652;51.864;-2.246;2024-01-30T04:20:16;102115.16;;;8.00;79.91
80333;BME280;69652;51.864;-2.246;2024-01-30T04:22:45;102129.19;;;7.97;80.71
80333;BME280;69652;51.864;-2.246;2024-01-30T04:25:14;102136.47;;;7.96;80.36
80333;BME280;69652;51.864;-2.246;2024-01-30T04:27:39;102133.44;;;7.93;80.43
80333;BME280;69652;51.864;-2.246;2024-01-30T04:30:05;102150.56;;;7.98;79.79
80333;BME280;69652;51.864;-2.246;2024-01-30T04:32:32;102154.38;;;8.03;79.70
80333;BME280;69652;51.864;-2.246;2024-01-30T04:34:57;102147.91;;;8.04;79.75
80333;BME280;69652;51.864;-2.246;2024-01-30T04:37:23;102153.63;;;8.07;80.18
80333;BME280;69652;51.864;-2.246;2024-01-30T04:39:49;102154.22;;;8.09;80.32
80333;BME280;69652;51.864;-2.246;2024-01-30T04:42:16;102166.47;;;8.17;80.06
80333;BME280;69652;51.864;-2.246;2024-01-30T04:44:42;102177.03;;;8.18;79.71
80333;BME280;69652;51.864;-2.246;2024-01-30T04:47:07;102181.44;;;8.24;80.61
80333;BME280;69652;51.864;-2.246;2024-01-30T04:49:36;102192.53;;;8.23;79.65
80333;BME280;69652;51.864;-2.246;2024-01-30T04:52:02;102199.00;;;8.22;79.92
80333;BME280;69652;51.864;-2.246;2024-01-30T04:54:28;102197.09;;;8.22;78.92
80333;BME280;69652;51.864;-2.246;2024-01-30T04:56:53;102207.09;;;8.22;79.11
80333;BME280;69652;51.864;-2.246;2024-01-30T04:59:19;102218.75;;;8.22;79.33
80333;BME280;69652;51.864;-2.246;2024-01-30T05:01:44;102215.78;;;8.24;79.98
80333;BME280;69652;51.864;-2.246;2024-01-30T05:04:10;102220.97;;;8.25;79.25
80333;BME280;69652;51.864;-2.246;2024-01-30T05:06:36;102226.09;;;8.27;79.70
80333;BME280;69652;51.864;-2.246;2024-01-30T05:09:02;102223.91;;;8.24;79.33
80333;BME280;69652;51.864;-2.246;2024-01-30T05:11:30;102227.69;;;8.23;79.50
80333;BME280;69652;51.864;-2.246;2024-01-30T05:13:55;102228.19;;;8.20;79.32
80333;BME280;69652;51.864;-2.246;2024-01-30T05:16:21;102245.34;;;8.09;78.81
80333;BME280;69652;51.864;-2.246;2024-01-30T05:18:46;102255.97;;;8.15;79.26
80333;BME280;69652;51.864;-2.246;2024-01-30T05:21:12;102257.44;;;8.23;78.70
80333;BME280;69652;51.864;-2.246;2024-01-30T05:23:37;102265.56;;;8.23;78.69
80333;BME280;69652;51.864;-2.246;2024-01-30T05:26:03;102269.06;;;8.23;79.09
80333;BME280;69652;51.864;-2.246;2024-01-30T05:28:30;102281.19;;;8.21;78.95
80333;BME280;69652;51.864;-2.246;2024-01-30T05:30:56;102276.03;;;8.19;78.79
80333;BME280;69652;51.864;-2.246;2024-01-30T05:33:21;102282.75;;;8.17;79.77
80333;BME280;69652;51.864;-2.246;2024-01-30T05:35:47;102278.50;;;8.21;78.39
80333;BME280;69652;51.864;-2.246;2024-01-30T05:38:15;102280.06;;;8.17;79.50
80333;BME280;69652;51.864;-2.246;2024-01-30T05:40:40;102283.81;;;8.16;79.01
80333;BME280;69652;51.864;-2.246;2024-01-30T05:43:06;102291.13;;;8.15;78.97
80333;BME280;69652;51.864;-2.246;2024-01-30T05:45:33;102309.81;;;8.17;78.54
80333;BME280;69652;51.864;-2.246;2024-01-30T05:48:00;102310.56;;;8.12;78.50
80333;BME280;69652;51.864;-2.246;2024-01-30T05:50:26;102315.41;;;8.10;78.31
80333;BME280;69652;51.864;-2.246;2024-01-30T05:52:52;102319.81;;;8.16;78.70
80333;BME280;69652;51.864;-2.246;2024-01-30T05:55:17;102322.50;;;8.16;78.26
80333;BME280;69652;51.864;-2.246;2024-01-30T05:57:43;102324.63;;;8.14;78.64
80333;BME280;69652;51.864;-2.246;2024-01-30T06:00:09;102330.94;;;8.20;77.79
80333;BME280;69652;51.864;-2.246;2024-01-30T06:02:34;102336.03;;;8.16;78.19
80333;BME280;69652;51.864;-2.246;2024-01-30T06:05:00;102329.75;;;8.11;78.03
80333;BME280;69652;51.864;-2.246;2024-01-30T06:07:26;102338.44;;;8.13;77.73
80333;BME280;69652;51.864;-2.246;2024-01-30T06:09:51;102344.81;;;8.07;77.31
80333;BME280;69652;51.864;-2.246;2024-01-30T06:12:17;102351.19;;;8.17;78.37
80333;BME280;69652;51.864;-2.246;2024-01-30T06:14:42;102355.47;;;8.13;78.24
80333;BME280;69652;51.864;-2.246;2024-01-30T06:17:08;102366.78;;;8.10;78.12
80333;BME280;69652;51.864;-2.246;2024-01-30T06:19:35;102371.19;;;8.16;78.50
80333;BME280;69652;51.864;-2.246;2024-01-30T06:22:00;102372.78;;;8.12;77.87
80333;BME280;69652;51.864;-2.246;2024-01-30T06:24:26;102368.19;;;8.13;77.98
80333;BME280;69652;51.864;-2.246;2024-01-30T06:26:53;102383.34;;;8.14;77.58
80333;BME280;69652;51.864;-2.246;2024-01-30T06:29:18;102395.63;;;8.21;77.38
80333;BME280;69652;51.864;-2.246;2024-01-30T06:31:44;102392.09;;;8.21;77.44
80333;BME280;69652;51.864;-2.246;2024-01-30T06:34:09;102386.59;;;8.16;77.09
80333;BME280;69652;51.864;-2.246;2024-01-30T06:36:37;102393.66;;;8.17;77.59
80333;BME280;69652;51.864;-2.246;2024-01-30T06:39:03;102392.25;;;8.14;77.85
80333;BME280;69652;51.864;-2.246;2024-01-30T06:41:29;102394.66;;;8.11;77.89
80333;BME280;69652;51.864;-2.246;2024-01-30T06:43:55;102402.75;;;8.11;77.93
80333;BME280;69652;51.864;-2.246;2024-01-30T06:46:21;102408.56;;;8.19;78.57
80333;BME280;69652;51.864;-2.246;2024-01-30T06:48:46;102402.34;;;8.19;77.99
80333;BME280;69652;51.864;-2.246;2024-01-30T06:51:12;102414.47;;;8.16;79.00
80333;BME280;69652;51.864;-2.246;2024-01-30T06:53:38;102427.09;;;8.11;79.22
80333;BME280;69652;51.864;-2.246;2024-01-30T06:56:04;102434.16;;;8.12;79.47
80333;BME280;69652;51.864;-2.246;2024-01-30T06:58:29;102434.47;;;8.15;79.24
80333;BME280;69652;51.864;-2.246;2024-01-30T07:00:56;102434.22;;;8.17;79.15
80333;BME280;69652;51.864;-2.246;2024-01-30T07:03:21;102438.22;;;8.14;79.14
80333;BME280;69652;51.864;-2.246;2024-01-30T07:05:47;102447.75;;;8.17;80.29
80333;BME280;69652;51.864;-2.246;2024-01-30T07:08:12;102440.94;;;8.14;79.70
80333;BME280;69652;51.864;-2.246;2024-01-30T07:10:38;102447.69;;;8.12;80.28
80333;BME280;69652;51.864;-2.246;2024-01-30T07:13:04;102449.78;;;8.10;80.23
80333;BME280;69652;51.864;-2.246;2024-01-30T07:15:31;102457.34;;;8.08;80.40
80333;BME280;69652;51.864;-2.246;2024-01-30T07:17:56;102458.97;;;8.09;79.97
80333;BME280;69652;51.864;-2.246;2024-01-30T07:20:22;102456.75;;;8.06;80.68
80333;BME280;69652;51.864;-2.246;2024-01-30T07:22:48;102473.22;;;8.04;80.00
80333;BME280;69652;51.864;-2.246;2024-01-30T07:25:13;102470.75;;;8.03;80.57
80333;BME280;69652;51.864;-2.246;2024-01-30T07:27:39;102476.75;;;8.05;80.81
80333;BME280;69652;51.864;-2.246;2024-01-30T07:30:05;102486.84;;;8.09;80.93
80333;BME280;69652;51.864;-2.246;2024-01-30T07:32:31;102490.03;;;8.06;80.30
80333;BME280;69652;51.864;-2.246;2024-01-30T07:34:57;102490.25;;;8.05;80.80
80333;BME280;69652;51.864;-2.246;2024-01-30T07:37:22;102495.59;;;8.00;80.70
80333;BME280;69652;51.864;-2.246;2024-01-30T07:39:48;102501.59;;;8.02;80.55
80333;BME280;69652;51.864;-2.246;2024-01-30T07:42:14;102509.59;;;7.96;81.01
80333;BME280;69652;51.864;-2.246;2024-01-30T07:44:39;102512.19;;;7.91;80.78
80333;BME280;69652;51.864;-2.246;2024-01-30T07:47:05;102516.28;;;7.94;80.27
80333;BME280;69652;51.864;-2.246;2024-01-30T07:49:34;102513.13;;;7.97;79.86
80333;BME280;69652;51.864;-2.246;2024-01-30T07:52:00;102520.50;;;8.02;79.61
80333;BME280;69652;51.864;-2.246;2024-01-30T07:54:25;102528.63;;;8.02;80.43
80333;BME280;69652;51.864;-2.246;2024-01-30T07:56:51;102532.16;;;8.02;78.90
80333;BME280;69652;51.864;-2.246;2024-01-30T07:59:16;102530.41;;;7.96;78.87
80333;BME280;69652;51.864;-2.246;2024-01-30T08:01:42;102532.94;;;8.03;79.45
80333;BME280;69652;51.864;-2.246;2024-01-30T08:04:07;102532.56;;;8.11;78.58
80333;BME280;69652;51.864;-2.246;2024-01-30T08:06:33;102545.50;;;8.09;78.40
80333;BME280;69652;51.864;-2.246;2024-01-30T08:08:59;102539.72;;;8.17;78.23
80333;BME280;69652;51.864;-2.246;2024-01-30T08:11:24;102561.09;;;8.18;78.00
80333;BME280;69652;51.864;-2.246;2024-01-30T08:13:54;102551.34;;;8.17;77.71
80333;BME280;69652;51.864;-2.246;2024-01-30T08:16:20;102555.47;;;8.20;77.71
80333;BME280;69652;51.864;-2.246;2024-01-30T08:18:46;102559.34;;;8.24;76.91
80333;BME280;69652;51.864;-2.246;2024-01-30T08:21:12;102568.28;;;8.24;77.48
80333;BME280;69652;51.864;-2.246;2024-01-30T08:23:40;102565.31;;;8.26;77.33
80333;BME280;69652;51.864;-2.246;2024-01-30T08:26:06;102566.63;;;8.23;76.82
80333;BME280;69652;51.864;-2.246;2024-01-30T08:28:32;102573.91;;;8.23;77.51
80333;BME280;69652;51.864;-2.246;2024-01-30T08:30:57;102576.47;;;8.29;77.97
80333;BME280;69652;51.864;-2.246;2024-01-30T08:33:23;102577.66;;;8.33;77.95
80333;BME280;69652;51.864;-2.246;2024-01-30T08:35:49;102580.59;;;8.32;77.32
80333;BME280;69652;51.864;-2.246;2024-01-30T08:38:14;102599.97;;;8.29;77.30
80333;BME280;69652;51.864;-2.246;2024-01-30T08:40:40;102604.34;;;8.30;77.97
80333;BME280;69652;51.864;-2.246;2024-01-30T08:43:06;102610.13;;;8.33;77.86
80333;BME280;69652;51.864;-2.246;2024-01-30T08:45:33;102617.50;;;8.38;77.32
80333;BME280;69652;51.864;-2.246;2024-01-30T08:47:59;102630.22;;;8.38;77.31
80333;BME280;69652;51.864;-2.246;2024-01-30T08:50:24;102635.06;;;8.36;77.77
80333;BME280;69652;51.864;-2.246;2024-01-30T08:52:50;102642.66;;;8.39;77.61
80333;BME280;69652;51.864;-2.246;2024-01-30T08:55:15;102649.50;;;8.41;77.74
80333;BME280;69652;51.864;-2.246;2024-01-30T08:57:41;102654.91;;;8.41;77.89
80333;BME280;69652;51.864;-2.246;2024-01-30T09:00:08;102654.00;;;8.36;77.02
80333;BME280;69652;51.864;-2.246;2024-01-30T09:02:35;102658.09;;;8.38;77.69
80333;BME280;69652;51.864;-2.246;2024-01-30T09:05:01;102664.59;;;8.37;77.47
80333;BME280;69652;51.864;-2.246;2024-01-30T09:07:27;102671.97;;;8.42;77.15
80333;BME280;69652;51.864;-2.246;2024-01-30T09:09:52;102675.13;;;8.39;77.04
80333;BME280;69652;51.864;-2.246;2024-01-30T09:12:18;102676.91;;;8.45;77.17
80333;BME280;69652;51.864;-2.246;2024-01-30T09:14:44;102678.31;;;8.47;77.46
80333;BME280;69652;51.864;-2.246;2024-01-30T09:17:09;102685.38;;;8.48;76.96
80333;BME280;69652;51.864;-2.246;2024-01-30T09:19:35;102687.25;;;8.48;76.77
80333;BME280;69652;51.864;-2.246;2024-01-30T09:22:01;102689.13;;;8.47;76.98
80333;BME280;69652;51.864;-2.246;2024-01-30T09:24:27;102690.31;;;8.28;75.15
80333;BME280;69652;51.864;-2.246;2024-01-30T09:26:53;102704.44;;;8.42;75.69
80333;BME280;69652;51.864;-2.246;2024-01-30T09:29:18;102702.44;;;8.49;75.91
80333;BME280;69652;51.864;-2.246;2024-01-30T09:31:45;102699.22;;;8.52;75.64
80333;BME280;69652;51.864;-2.246;2024-01-30T09:34:11;102705.97;;;8.49;74.71
80333;BME280;69652;51.864;-2.246;2024-01-30T09:36:36;102714.06;;;8.49;74.87
80333;BME280;69652;51.864;-2.246;2024-01-30T09:39:02;102723.00;;;8.50;74.43
80333;BME280;69652;51.864;-2.246;2024-01-30T09:41:29;102729.44;;;8.60;74.30
80333;BME280;69652;51.864;-2.246;2024-01-30T09:43:57;102732.72;;;8.62;74.32
80333;BME280;69652;51.864;-2.246;2024-01-30T09:46:26;102730.94;;;8.68;73.89
80333;BME280;69652;51.864;-2.246;2024-01-30T09:48:53;102733.66;;;8.68;73.52
80333;BME280;69652;51.864;-2.246;2024-01-30T09:51:21;102747.31;;;8.61;72.51
80333;BME280;69652;51.864;-2.246;2024-01-30T09:53:48;102749.78;;;8.63;73.33
80333;BME280;69652;51.864;-2.246;2024-01-30T09:56:14;102757.66;;;8.64;72.32
80333;BME280;69652;51.864;-2.246;2024-01-30T09:58:40;102751.31;;;8.71;71.79
80333;BME280;69652;51.864;-2.246;2024-01-30T10:01:06;102755.63;;;8.83;70.97
80333;BME280;69652;51.864;-2.246;2024-01-30T10:03:32;102759.09;;;8.95;71.46
80333;BME280;69652;51.864;-2.246;2024-01-30T10:05:58;102759.75;;;9.02;70.90
80333;BME280;69652;51.864;-2.246;2024-01-30T10:08:26;102772.66;;;9.12;71.15
80333;BME280;69652;51.864;-2.246;2024-01-30T10:10:52;102775.28;;;9.07;69.42
80333;BME280;69652;51.864;-2.246;2024-01-30T10:13:18;102781.44;;;9.02;70.84
80333;BME280;69652;51.864;-2.246;2024-01-30T10:15:44;102791.91;;;8.99;70.02
80333;BME280;69652;51.864;-2.246;2024-01-30T10:18:10;102793.25;;;8.96;70.57
80333;BME280;69652;51.864;-2.246;2024-01-30T10:20:37;102801.84;;;8.93;70.83
80333;BME280;69652;51.864;-2.246;2024-01-30T10:23:03;102807.50;;;8.92;70.69
80333;BME280;69652;51.864;-2.246;2024-01-30T10:25:30;102815.03;;;8.90;70.97
80333;BME280;69652;51.864;-2.246;2024-01-30T10:27:56;102814.09;;;8.96;71.54
80333;BME280;69652;51.864;-2.246;2024-01-30T10:30:24;102821.69;;;8.99;70.56
80333;BME280;69652;51.864;-2.246;2024-01-30T10:32:50;102820.56;;;8.95;69.69
80333;BME280;69652;51.864;-2.246;2024-01-30T10:35:16;102825.41;;;8.93;70.89
80333;BME280;69652;51.864;-2.246;2024-01-30T10:37:48;102834.56;;;8.92;71.01
80333;BME280;69652;51.864;-2.246;2024-01-30T10:40:14;102845.22;;;8.82;70.35
80333;BME280;69652;51.864;-2.246;2024-01-30T10:42:45;102850.75;;;8.75;70.89
80333;BME280;69652;51.864;-2.246;2024-01-30T10:45:14;102850.03;;;8.80;70.80
80333;BME280;69652;51.864;-2.246;2024-01-30T10:48:01;102876.41;;;8.84;71.46
80333;BME280;69652;51.864;-2.246;2024-01-30T10:50:30;102869.19;;;8.90;70.72
80333;BME280;69652;51.864;-2.246;2024-01-30T10:52:57;102881.78;;;8.96;70.75
80333;BME280;69652;51.864;-2.246;2024-01-30T10:55:24;102881.81;;;8.84;69.80
80333;BME280;69652;51.864;-2.246;2024-01-30T10:57:50;102894.03;;;8.87;69.67
80333;BME280;69652;51.864;-2.246;2024-01-30T11:00:16;102890.50;;;8.86;70.22
80333;BME280;69652;51.864;-2.246;2024-01-30T11:02:45;102892.97;;;8.88;70.10
80333;BME280;69652;51.864;-2.246;2024-01-30T11:05:12;102892.75;;;8.89;70.72
80333;BME280;69652;51.864;-2.246;2024-01-30T11:07:41;102902.50;;;9.02;70.71
80333;BME280;69652;51.864;-2.246;2024-01-30T11:10:07;102901.78;;;9.07;69.51
80333;BME280;69652;51.864;-2.246;2024-01-30T11:12:39;102914.31;;;8.96;69.31
80333;BME280;69652;51.864;-2.246;2024-01-30T11:15:16;102911.69;;;9.01;70.18
80333;BME280;69652;51.864;-2.246;2024-01-30T11:20:22;102914.84;;;8.98;69.99
80333;BME280;69652;51.864;-2.246;2024-01-30T11:22:51;102916.72;;;9.09;69.63
80333;BME280;69652;51.864;-2.246;2024-01-30T11:25:20;102919.56;;;9.02;69.23
80333;BME280;69652;51.864;-2.246;2024-01-30T11:27:47;102918.53;;;8.92;68.77
80333;BME280;69652;51.864;-2.246;2024-01-30T11:30:28;102909.78;;;9.01;69.89
80333;BME280;69652;51.864;-2.246;2024-01-30T11:35:24;102918.75;;;9.02;68.96
80333;BME280;69652;51.864;-2.246;2024-01-30T11:37:50;102922.88;;;9.04;69.56
80333;BME280;69652;51.864;-2.246;2024-01-30T11:40:16;102919.59;;;8.91;68.19
80333;BME280;69652;51.864;-2.246;2024-01-30T11:42:43;102920.41;;;9.03;69.70
80333;BME280;69652;51.864;-2.246;2024-01-30T11:45:09;102920.00;;;9.11;69.48
80333;BME280;69652;51.864;-2.246;2024-01-30T11:47:36;102929.66;;;9.19;69.10
80333;BME280;69652;51.864;-2.246;2024-01-30T11:50:04;102916.94;;;9.19;69.61
80333;BME280;69652;51.864;-2.246;2024-01-30T11:52:33;102927.28;;;9.22;69.52
80333;BME280;69652;51.864;-2.246;2024-01-30T11:54:59;102934.13;;;9.25;69.35
80333;BME280;69652;51.864;-2.246;2024-01-30T11:57:27;102929.88;;;9.29;69.59
80333;BME280;69652;51.864;-2.246;2024-01-30T11:59:52;102929.13;;;9.33;69.36
80333;BME280;69652;51.864;-2.246;2024-01-30T12:02:18;102941.50;;;9.41;69.19
80333;BME280;69652;51.864;-2.246;2024-01-30T12:04:44;102937.97;;;9.40;68.69
80333;BME280;69652;51.864;-2.246;2024-01-30T12:07:11;102938.03;;;9.46;69.00
80333;BME280;69652;51.864;-2.246;2024-01-30T12:09:37;102936.84;;;9.53;68.71
80333;BME280;69652;51.864;-2.246;2024-01-30T12:12:03;102945.13;;;9.47;68.56
80333;BME280;69652;51.864;-2.246;2024-01-30T12:14:28;102946.75;;;9.48;68.88
80333;BME280;69652;51.864;-2.246;2024-01-30T12:16:54;102947.03;;;9.34;69.15
80333;BME280;69652;51.864;-2.246;2024-01-30T12:19:26;102953.63;;;9.38;69.56
80333;BME280;69652;51.864;-2.246;2024-01-30T12:21:58;102947.75;;;9.41;69.59
80333;BME280;69652;51.864;-2.246;2024-01-30T12:24:29;102946.69;;;9.43;69.35
80333;BME280;69652;51.864;-2.246;2024-01-30T12:26:59;102948.06;;;9.45;69.05
80333;BME280;69652;51.864;-2.246;2024-01-30T12:29:25;102951.91;;;9.61;68.94
80333;BME280;69652;51.864;-2.246;2024-01-30T12:31:54;102958.97;;;9.62;68.83
80333;BME280;69652;51.864;-2.246;2024-01-30T12:34:20;102963.16;;;9.53;68.69
80333;BME280;69652;51.864;-2.246;2024-01-30T12:36:49;102959.38;;;9.54;69.01
80333;BME280;69652;51.864;-2.246;2024-01-30T12:39:15;102956.97;;;9.57;68.80
80333;BME280;69652;51.864;-2.246;2024-01-30T12:41:41;102958.50;;;9.65;68.88
80333;BME280;69652;51.864;-2.246;2024-01-30T12:44:07;102960.34;;;9.76;68.82
80333;BME280;69652;51.864;-2.246;2024-01-30T12:46:34;102969.28;;;9.76;67.75
80333;BME280;69652;51.864;-2.246;2024-01-30T12:49:00;102971.75;;;9.78;67.88